sensor_id;sensor_type;location;lat;lon;timestamp;P1;durP1;ratioP1;P2;durP2;ratioP2
5054;SDS011;13829;48.990;8.346;2023-05-21T00:01:02;24.23;;;19.67;;
5054;SDS011;13829;48.990;8.346;2023-05-21T00:03:31;22.43;;;19.07;;
5054;SDS011;13829;48.990;8.346;2023-05-21T00:05:59;22.20;;;18.77;;
5054;SDS011;13829;48.990;8.346;2023-05-21T00:08:27;20.70;;;18.03;;
5054;SDS011;13829;48.990;8.346;2023-05-21T00:10:55;20.93;;;17.73;;
5054;SDS011;13829;48.990;8.346;2023-05-21T00:13:21;25.63;;;19.93;;
5054;SDS011;13829;48.990;8.346;2023-05-21T00:15:48;22.63;;;18.40;;
5054;SDS011;13829;48.990;8.346;2023-05-21T00:18:15;24.13;;;19.50;;
5054;SDS011;13829;48.990;8.346;2023-05-21T00:20:44;20.80;;;18.70;;
5054;SDS011;13829;48.990;8.346;2023-05-21T00:23:11;23.93;;;20.20;;
5054;SDS011;13829;48.990;8.346;2023-05-21T00:25:42;24.00;;;18.97;;
5054;SDS011;13829;48.990;8.346;2023-05-21T00:28:10;20.30;;;18.10;;
5054;SDS011;13829;48.990;8.346;2023-05-21T00:30:37;22.43;;;18.93;;
5054;SDS011;13829;48.990;8.346;2023-05-21T00:33:05;20.40;;;18.10;;
5054;SDS011;13829;48.990;8.346;2023-05-21T00:35:34;25.53;;;19.53;;
5054;SDS011;13829;48.990;8.346;2023-05-21T00:38:02;21.97;;;18.67;;
5054;SDS011;13829;48.990;8.346;2023-05-21T00:40:31;23.50;;;19.60;;
5054;SDS011;13829;48.990;8.346;2023-05-21T00:42:59;21.60;;;19.13;;
5054;SDS011;13829;48.990;8.346;2023-05-21T00:45:26;23.63;;;19.57;;
5054;SDS011;13829;48.990;8.346;2023-05-21T00:47:53;23.97;;;19.07;;
5054;SDS011;13829;48.990;8.346;2023-05-21T00:50:21;22.40;;;19.07;;
5054;SDS011;13829;48.990;8.346;2023-05-21T00:52:48;22.40;;;18.73;;
5054;SDS011;13829;48.990;8.346;2023-05-21T00:55:17;22.90;;;19.73;;
5054;SDS011;13829;48.990;8.346;2023-05-21T00:57:44;24.97;;;20.43;;
5054;SDS011;13829;48.990;8.346;2023-05-21T01:00:12;23.50;;;19.83;;
5054;SDS011;13829;48.990;8.346;2023-05-21T01:02:40;29.03;;;20.77;;
5054;SDS011;13829;48.990;8.346;2023-05-21T01:05:08;23.97;;;19.57;;
5054;SDS011;13829;48.990;8.346;2023-05-21T01:07:36;23.70;;;19.77;;
5054;SDS011;13829;48.990;8.346;2023-05-21T01:10:07;22.63;;;19.87;;
5054;SDS011;13829;48.990;8.346;2023-05-21T01:12:38;25.57;;;20.57;;
5054;SDS011;13829;48.990;8.346;2023-05-21T01:15:09;24.23;;;20.67;;
5054;SDS011;13829;48.990;8.346;2023-05-21T01:17:37;25.10;;;19.97;;
5054;SDS011;13829;48.990;8.346;2023-05-21T01:20:05;22.90;;;18.97;;
5054;SDS011;13829;48.990;8.346;2023-05-21T01:22:35;24.93;;;19.07;;
5054;SDS011;13829;48.990;8.346;2023-05-21T01:25:08;25.10;;;20.40;;
5054;SDS011;13829;48.990;8.346;2023-05-21T01:27:35;26.43;;;20.50;;
5054;SDS011;13829;48.990;8.346;2023-05-21T01:30:02;25.37;;;21.43;;
5054;SDS011;13829;48.990;8.346;2023-05-21T01:32:32;24.93;;;20.00;;
5054;SDS011;13829;48.990;8.346;2023-05-21T01:35:08;26.10;;;19.23;;
5054;SDS011;13829;48.990;8.346;2023-05-21T01:37:41;23.50;;;20.20;;
5054;SDS011;13829;48.990;8.346;2023-05-21T01:40:19;24.80;;;20.37;;
5054;SDS011;13829;48.990;8.346;2023-05-21T01:42:54;26.53;;;21.07;;
5054;SDS011;13829;48.990;8.346;2023-05-21T01:45:23;22.87;;;18.50;;
5054;SDS011;13829;48.990;8.346;2023-05-21T01:47:53;24.83;;;19.10;;
5054;SDS011;13829;48.990;8.346;2023-05-21T01:50:21;27.17;;;21.30;;
5054;SDS011;13829;48.990;8.346;2023-05-21T01:52:50;25.13;;;19.63;;
5054;SDS011;13829;48.990;8.346;2023-05-21T01:55:20;23.47;;;19.00;;
5054;SDS011;13829;48.990;8.346;2023-05-21T01:57:48;21.13;;;18.57;;
5054;SDS011;13829;48.990;8.346;2023-05-21T02:00:16;21.53;;;18.13;;
5054;SDS011;13829;48.990;8.346;2023-05-21T02:02:44;23.87;;;19.63;;
5054;SDS011;13829;48.990;8.346;2023-05-21T02:05:11;21.97;;;19.60;;
5054;SDS011;13829;48.990;8.346;2023-05-21T02:07:37;22.70;;;20.17;;
5054;SDS011;13829;48.990;8.346;2023-05-21T02:10:05;22.60;;;19.07;;
5054;SDS011;13829;48.990;8.346;2023-05-21T02:12:34;25.13;;;20.83;;
5054;SDS011;13829;48.990;8.346;2023-05-21T02:15:02;28.40;;;20.33;;
5054;SDS011;13829;48.990;8.346;2023-05-21T02:17:30;29.03;;;21.60;;
5054;SDS011;13829;48.990;8.346;2023-05-21T02:19:58;23.37;;;19.97;;
5054;SDS011;13829;48.990;8.346;2023-05-21T02:22:32;25.03;;;20.50;;
5054;SDS011;13829;48.990;8.346;2023-05-21T02:24:59;26.57;;;21.00;;
5054;SDS011;13829;48.990;8.346;2023-05-21T02:27:26;23.70;;;19.50;;
5054;SDS011;13829;48.990;8.346;2023-05-21T02:29:57;26.23;;;19.90;;
5054;SDS011;13829;48.990;8.346;2023-05-21T02:32:24;26.33;;;20.70;;
5054;SDS011;13829;48.990;8.346;2023-05-21T02:34:51;24.53;;;20.70;;
5054;SDS011;13829;48.990;8.346;2023-05-21T02:37:18;25.00;;;19.57;;
5054;SDS011;13829;48.990;8.346;2023-05-21T02:39:45;25.60;;;21.00;;
5054;SDS011;13829;48.990;8.346;2023-05-21T02:42:12;25.40;;;19.80;;
5054;SDS011;13829;48.990;8.346;2023-05-21T02:44:38;29.47;;;20.87;;
5054;SDS011;13829;48.990;8.346;2023-05-21T02:47:07;26.13;;;19.97;;
5054;SDS011;13829;48.990;8.346;2023-05-21T02:49:34;25.07;;;20.70;;
5054;SDS011;13829;48.990;8.346;2023-05-21T02:52:01;24.63;;;19.87;;
5054;SDS011;13829;48.990;8.346;2023-05-21T02:54:28;25.07;;;20.93;;
5054;SDS011;13829;48.990;8.346;2023-05-21T02:56:55;28.17;;;21.67;;
5054;SDS011;13829;48.990;8.346;2023-05-21T02:59:22;26.97;;;21.87;;
5054;SDS011;13829;48.990;8.346;2023-05-21T03:01:49;25.90;;;21.23;;
5054;SDS011;13829;48.990;8.346;2023-05-21T03:04:17;26.93;;;20.53;;
5054;SDS011;13829;48.990;8.346;2023-05-21T03:06:45;27.93;;;21.37;;
5054;SDS011;13829;48.990;8.346;2023-05-21T03:09:12;24.67;;;21.13;;
5054;SDS011;13829;48.990;8.346;2023-05-21T03:11:41;28.03;;;22.30;;
5054;SDS011;13829;48.990;8.346;2023-05-21T03:14:08;27.47;;;22.33;;
5054;SDS011;13829;48.990;8.346;2023-05-21T03:16:35;25.03;;;20.77;;
5054;SDS011;13829;48.990;8.346;2023-05-21T03:19:05;27.10;;;21.67;;
5054;SDS011;13829;48.990;8.346;2023-05-21T03:21:34;25.70;;;20.57;;
5054;SDS011;13829;48.990;8.346;2023-05-21T03:24:01;28.17;;;22.30;;
5054;SDS011;13829;48.990;8.346;2023-05-21T03:26:30;28.43;;;22.33;;
5054;SDS011;13829;48.990;8.346;2023-05-21T03:28:57;24.97;;;20.93;;
5054;SDS011;13829;48.990;8.346;2023-05-21T03:31:25;25.93;;;20.80;;
5054;SDS011;13829;48.990;8.346;2023-05-21T03:33:53;29.93;;;22.33;;
5054;SDS011;13829;48.990;8.346;2023-05-21T03:36:20;25.43;;;20.33;;
5054;SDS011;13829;48.990;8.346;2023-05-21T03:38:48;28.27;;;21.97;;
5054;SDS011;13829;48.990;8.346;2023-05-21T03:41:15;26.87;;;21.53;;
5054;SDS011;13829;48.990;8.346;2023-05-21T03:43:42;28.13;;;20.73;;
5054;SDS011;13829;48.990;8.346;2023-05-21T03:46:09;29.23;;;22.93;;
5054;SDS011;13829;48.990;8.346;2023-05-21T03:48:35;26.40;;;21.27;;
5054;SDS011;13829;48.990;8.346;2023-05-21T03:51:02;24.57;;;21.27;;
5054;SDS011;13829;48.990;8.346;2023-05-21T03:53:32;24.97;;;20.70;;
5054;SDS011;13829;48.990;8.346;2023-05-21T03:56:00;28.77;;;21.97;;
5054;SDS011;13829;48.990;8.346;2023-05-21T03:58:27;29.53;;;22.60;;
5054;SDS011;13829;48.990;8.346;2023-05-21T04:00:55;26.27;;;21.30;;
5054;SDS011;13829;48.990;8.346;2023-05-21T04:03:22;26.10;;;22.07;;
5054;SDS011;13829;48.990;8.346;2023-05-21T04:05:49;26.33;;;20.53;;
5054;SDS011;13829;48.990;8.346;2023-05-21T04:08:16;26.40;;;21.00;;
5054;SDS011;13829;48.990;8.346;2023-05-21T04:10:43;28.27;;;21.70;;
5054;SDS011;13829;48.990;8.346;2023-05-21T04:13:11;31.87;;;22.20;;
5054;SDS011;13829;48.990;8.346;2023-05-21T04:15:38;25.87;;;21.17;;
5054;SDS011;13829;48.990;8.346;2023-05-21T04:18:07;25.90;;;21.03;;
5054;SDS011;13829;48.990;8.346;2023-05-21T04:20:34;29.17;;;21.60;;
5054;SDS011;13829;48.990;8.346;2023-05-21T04:23:01;30.33;;;21.80;;
5054;SDS011;13829;48.990;8.346;2023-05-21T04:25:28;24.07;;;20.23;;
5054;SDS011;13829;48.990;8.346;2023-05-21T04:27:55;29.20;;;23.00;;
5054;SDS011;13829;48.990;8.346;2023-05-21T04:30:23;27.80;;;22.33;;
5054;SDS011;13829;48.990;8.346;2023-05-21T04:32:50;26.03;;;21.10;;
5054;SDS011;13829;48.990;8.346;2023-05-21T04:35:18;27.00;;;21.57;;
5054;SDS011;13829;48.990;8.346;2023-05-21T04:37:47;26.73;;;21.00;;
5054;SDS011;13829;48.990;8.346;2023-05-21T04:40:14;26.90;;;20.60;;
5054;SDS011;13829;48.990;8.346;2023-05-21T04:42:42;29.27;;;22.13;;
5054;SDS011;13829;48.990;8.346;2023-05-21T04:45:10;26.87;;;20.90;;
5054;SDS011;13829;48.990;8.346;2023-05-21T04:47:39;27.50;;;22.33;;
5054;SDS011;13829;48.990;8.346;2023-05-21T04:50:08;32.40;;;21.33;;
5054;SDS011;13829;48.990;8.346;2023-05-21T04:52:35;26.93;;;21.23;;
5054;SDS011;13829;48.990;8.346;2023-05-21T04:55:04;25.93;;;20.90;;
5054;SDS011;13829;48.990;8.346;2023-05-21T04:57:32;26.13;;;21.07;;
5054;SDS011;13829;48.990;8.346;2023-05-21T04:59:59;25.53;;;20.97;;
5054;SDS011;13829;48.990;8.346;2023-05-21T05:02:27;28.00;;;21.63;;
5054;SDS011;13829;48.990;8.346;2023-05-21T05:04:56;26.13;;;20.70;;
5054;SDS011;13829;48.990;8.346;2023-05-21T05:07:23;24.23;;;20.40;;
5054;SDS011;13829;48.990;8.346;2023-05-21T05:09:50;24.27;;;19.93;;
5054;SDS011;13829;48.990;8.346;2023-05-21T05:12:17;25.93;;;19.67;;
5054;SDS011;13829;48.990;8.346;2023-05-21T05:14:44;27.23;;;19.03;;
5054;SDS011;13829;48.990;8.346;2023-05-21T05:17:11;24.13;;;19.63;;
5054;SDS011;13829;48.990;8.346;2023-05-21T05:19:39;28.00;;;19.47;;
5054;SDS011;13829;48.990;8.346;2023-05-21T05:22:07;23.67;;;19.37;;
5054;SDS011;13829;48.990;8.346;2023-05-21T05:24:35;22.53;;;18.93;;
5054;SDS011;13829;48.990;8.346;2023-05-21T05:27:02;25.10;;;18.70;;
5054;SDS011;13829;48.990;8.346;2023-05-21T05:29:29;26.10;;;19.77;;
5054;SDS011;13829;48.990;8.346;2023-05-21T05:31:56;22.17;;;18.23;;
5054;SDS011;13829;48.990;8.346;2023-05-21T05:34:23;23.00;;;18.37;;
5054;SDS011;13829;48.990;8.346;2023-05-21T05:36:50;24.53;;;18.70;;
5054;SDS011;13829;48.990;8.346;2023-05-21T05:39:18;22.20;;;18.77;;
5054;SDS011;13829;48.990;8.346;2023-05-21T05:41:45;23.07;;;18.30;;
5054;SDS011;13829;48.990;8.346;2023-05-21T05:44:12;24.00;;;18.87;;
5054;SDS011;13829;48.990;8.346;2023-05-21T05:46:39;22.60;;;19.50;;
5054;SDS011;13829;48.990;8.346;2023-05-21T05:49:06;23.67;;;18.47;;
5054;SDS011;13829;48.990;8.346;2023-05-21T05:51:33;23.42;;;17.90;;
5054;SDS011;13829;48.990;8.346;2023-05-21T05:54:01;25.48;;;19.10;;
5054;SDS011;13829;48.990;8.346;2023-05-21T05:56:29;22.93;;;18.37;;
5054;SDS011;13829;48.990;8.346;2023-05-21T05:58:56;22.83;;;18.13;;
5054;SDS011;13829;48.990;8.346;2023-05-21T06:01:23;23.50;;;17.67;;
5054;SDS011;13829;48.990;8.346;2023-05-21T06:03:50;20.55;;;16.33;;
5054;SDS011;13829;48.990;8.346;2023-05-21T06:06:17;21.80;;;17.25;;
5054;SDS011;13829;48.990;8.346;2023-05-21T06:08:45;20.52;;;16.95;;
5054;SDS011;13829;48.990;8.346;2023-05-21T06:11:11;22.95;;;16.52;;
5054;SDS011;13829;48.990;8.346;2023-05-21T06:13:42;21.70;;;18.05;;
5054;SDS011;13829;48.990;8.346;2023-05-21T06:16:09;20.85;;;17.58;;
5054;SDS011;13829;48.990;8.346;2023-05-21T06:18:36;24.20;;;18.88;;
5054;SDS011;13829;48.990;8.346;2023-05-21T06:21:03;23.27;;;18.50;;
5054;SDS011;13829;48.990;8.346;2023-05-21T06:23:30;22.52;;;17.73;;
5054;SDS011;13829;48.990;8.346;2023-05-21T06:25:59;20.73;;;17.13;;
5054;SDS011;13829;48.990;8.346;2023-05-21T06:28:26;21.23;;;17.47;;
5054;SDS011;13829;48.990;8.346;2023-05-21T06:30:54;20.47;;;16.90;;
5054;SDS011;13829;48.990;8.346;2023-05-21T06:33:21;24.97;;;17.90;;
5054;SDS011;13829;48.990;8.346;2023-05-21T06:35:48;20.37;;;16.23;;
5054;SDS011;13829;48.990;8.346;2023-05-21T06:38:15;19.48;;;17.20;;
5054;SDS011;13829;48.990;8.346;2023-05-21T06:40:42;20.55;;;16.48;;
5054;SDS011;13829;48.990;8.346;2023-05-21T06:43:11;23.90;;;17.95;;
5054;SDS011;13829;48.990;8.346;2023-05-21T06:45:38;20.00;;;16.30;;
5054;SDS011;13829;48.990;8.346;2023-05-21T06:48:06;19.58;;;16.08;;
5054;SDS011;13829;48.990;8.346;2023-05-21T06:50:33;22.13;;;17.45;;
5054;SDS011;13829;48.990;8.346;2023-05-21T06:53:00;19.33;;;16.98;;
5054;SDS011;13829;48.990;8.346;2023-05-21T06:55:28;19.35;;;16.77;;
5054;SDS011;13829;48.990;8.346;2023-05-21T06:57:56;17.00;;;15.20;;
5054;SDS011;13829;48.990;8.346;2023-05-21T07:00:23;19.70;;;16.05;;
5054;SDS011;13829;48.990;8.346;2023-05-21T07:02:50;18.55;;;16.20;;
5054;SDS011;13829;48.990;8.346;2023-05-21T07:05:18;18.58;;;16.50;;
5054;SDS011;13829;48.990;8.346;2023-05-21T07:07:45;17.75;;;14.93;;
5054;SDS011;13829;48.990;8.346;2023-05-21T07:10:12;17.58;;;14.88;;
5054;SDS011;13829;48.990;8.346;2023-05-21T07:12:39;17.92;;;15.15;;
5054;SDS011;13829;48.990;8.346;2023-05-21T07:15:06;16.02;;;14.32;;
5054;SDS011;13829;48.990;8.346;2023-05-21T07:17:34;16.98;;;14.48;;
5054;SDS011;13829;48.990;8.346;2023-05-21T07:20:01;17.33;;;15.05;;
5054;SDS011;13829;48.990;8.346;2023-05-21T07:22:31;16.08;;;14.30;;
5054;SDS011;13829;48.990;8.346;2023-05-21T07:24:58;16.17;;;14.48;;
5054;SDS011;13829;48.990;8.346;2023-05-21T07:27:25;17.17;;;15.20;;
5054;SDS011;13829;48.990;8.346;2023-05-21T07:29:52;17.50;;;15.10;;
5054;SDS011;13829;48.990;8.346;2023-05-21T07:32:19;15.40;;;13.75;;
5054;SDS011;13829;48.990;8.346;2023-05-21T07:34:46;15.20;;;13.60;;
5054;SDS011;13829;48.990;8.346;2023-05-21T07:37:13;17.65;;;14.73;;
5054;SDS011;13829;48.990;8.346;2023-05-21T07:39:41;14.57;;;13.18;;
5054;SDS011;13829;48.990;8.346;2023-05-21T07:42:08;15.20;;;13.38;;
5054;SDS011;13829;48.990;8.346;2023-05-21T07:44:35;16.30;;;14.60;;
5054;SDS011;13829;48.990;8.346;2023-05-21T07:47:02;16.55;;;14.85;;
5054;SDS011;13829;48.990;8.346;2023-05-21T07:49:29;17.05;;;14.60;;
5054;SDS011;13829;48.990;8.346;2023-05-21T07:51:56;17.50;;;14.48;;
5054;SDS011;13829;48.990;8.346;2023-05-21T07:54:23;17.00;;;15.27;;
5054;SDS011;13829;48.990;8.346;2023-05-21T07:56:51;19.38;;;14.45;;
5054;SDS011;13829;48.990;8.346;2023-05-21T07:59:18;15.45;;;13.93;;
5054;SDS011;13829;48.990;8.346;2023-05-21T08:01:45;16.35;;;14.60;;
5054;SDS011;13829;48.990;8.346;2023-05-21T08:04:12;15.93;;;14.23;;
5054;SDS011;13829;48.990;8.346;2023-05-21T08:06:39;16.80;;;15.05;;
5054;SDS011;13829;48.990;8.346;2023-05-21T08:09:06;17.55;;;15.27;;
5054;SDS011;13829;48.990;8.346;2023-05-21T08:11:33;15.95;;;14.25;;
5054;SDS011;13829;48.990;8.346;2023-05-21T08:14:01;22.05;;;15.40;;
5054;SDS011;13829;48.990;8.346;2023-05-21T08:16:28;16.05;;;14.27;;
5054;SDS011;13829;48.990;8.346;2023-05-21T08:18:55;15.85;;;13.73;;
5054;SDS011;13829;48.990;8.346;2023-05-21T08:21:22;15.55;;;13.38;;
5054;SDS011;13829;48.990;8.346;2023-05-21T08:23:51;15.23;;;13.73;;
5054;SDS011;13829;48.990;8.346;2023-05-21T08:26:17;16.27;;;14.45;;
5054;SDS011;13829;48.990;8.346;2023-05-21T08:28:45;16.60;;;14.88;;
5054;SDS011;13829;48.990;8.346;2023-05-21T08:31:14;16.77;;;15.05;;
5054;SDS011;13829;48.990;8.346;2023-05-21T08:33:48;16.63;;;14.90;;
5054;SDS011;13829;48.990;8.346;2023-05-21T08:36:16;15.57;;;13.73;;
5054;SDS011;13829;48.990;8.346;2023-05-21T08:38:43;15.52;;;13.82;;
5054;SDS011;13829;48.990;8.346;2023-05-21T08:41:11;15.80;;;13.93;;
5054;SDS011;13829;48.990;8.346;2023-05-21T08:43:38;17.10;;;15.30;;
5054;SDS011;13829;48.990;8.346;2023-05-21T08:46:05;15.43;;;13.82;;
5054;SDS011;13829;48.990;8.346;2023-05-21T08:48:36;16.02;;;14.40;;
5054;SDS011;13829;48.990;8.346;2023-05-21T08:51:04;17.23;;;14.43;;
5054;SDS011;13829;48.990;8.346;2023-05-21T08:53:31;15.68;;;14.07;;
5054;SDS011;13829;48.990;8.346;2023-05-21T08:55:59;17.83;;;14.90;;
5054;SDS011;13829;48.990;8.346;2023-05-21T08:58:27;16.20;;;13.30;;
5054;SDS011;13829;48.990;8.346;2023-05-21T09:00:57;14.93;;;13.23;;
5054;SDS011;13829;48.990;8.346;2023-05-21T09:03:24;15.48;;;13.60;;
5054;SDS011;13829;48.990;8.346;2023-05-21T09:05:54;17.33;;;14.43;;
5054;SDS011;13829;48.990;8.346;2023-05-21T09:08:23;15.60;;;13.32;;
5054;SDS011;13829;48.990;8.346;2023-05-21T09:10:56;15.30;;;13.68;;
5054;SDS011;13829;48.990;8.346;2023-05-21T09:13:24;15.15;;;13.65;;
5054;SDS011;13829;48.990;8.346;2023-05-21T09:15:53;13.25;;;11.82;;
5054;SDS011;13829;48.990;8.346;2023-05-21T09:18:21;13.68;;;12.30;;
5054;SDS011;13829;48.990;8.346;2023-05-21T09:20:47;14.40;;;12.48;;
5054;SDS011;13829;48.990;8.346;2023-05-21T09:23:17;12.90;;;11.63;;
5054;SDS011;13829;48.990;8.346;2023-05-21T09:25:45;13.00;;;11.65;;
5054;SDS011;13829;48.990;8.346;2023-05-21T09:28:17;14.10;;;11.63;;
5054;SDS011;13829;48.990;8.346;2023-05-21T09:30:45;14.13;;;12.27;;
5054;SDS011;13829;48.990;8.346;2023-05-21T09:33:22;13.45;;;12.07;;
5054;SDS011;13829;48.990;8.346;2023-05-21T09:35:51;13.95;;;12.57;;
5054;SDS011;13829;48.990;8.346;2023-05-21T09:38:19;14.35;;;12.68;;
5054;SDS011;13829;48.990;8.346;2023-05-21T09:40:48;13.45;;;12.07;;
5054;SDS011;13829;48.990;8.346;2023-05-21T09:43:15;14.32;;;12.55;;
5054;SDS011;13829;48.990;8.346;2023-05-21T09:45:49;13.38;;;11.95;;
5054;SDS011;13829;48.990;8.346;2023-05-21T09:48:27;12.80;;;11.48;;
5054;SDS011;13829;48.990;8.346;2023-05-21T09:51:06;13.20;;;11.80;;
5054;SDS011;13829;48.990;8.346;2023-05-21T09:53:36;13.52;;;12.23;;
5054;SDS011;13829;48.990;8.346;2023-05-21T09:56:13;15.13;;;12.75;;
5054;SDS011;13829;48.990;8.346;2023-05-21T09:58:40;14.30;;;13.00;;
5054;SDS011;13829;48.990;8.346;2023-05-21T10:01:09;13.85;;;12.45;;
5054;SDS011;13829;48.990;8.346;2023-05-21T10:03:37;14.90;;;13.40;;
5054;SDS011;13829;48.990;8.346;2023-05-21T10:06:06;13.93;;;12.55;;
5054;SDS011;13829;48.990;8.346;2023-05-21T10:08:34;19.10;;;13.40;;
5054;SDS011;13829;48.990;8.346;2023-05-21T10:11:09;15.38;;;13.43;;
5054;SDS011;13829;48.990;8.346;2023-05-21T10:13:38;16.85;;;13.65;;
5054;SDS011;13829;48.990;8.346;2023-05-21T10:16:13;15.07;;;13.48;;
5054;SDS011;13829;48.990;8.346;2023-05-21T10:18:41;13.95;;;12.50;;
5054;SDS011;13829;48.990;8.346;2023-05-21T10:21:10;13.88;;;12.50;;
5054;SDS011;13829;48.990;8.346;2023-05-21T10:23:39;14.20;;;12.80;;
5054;SDS011;13829;48.990;8.346;2023-05-21T10:26:08;14.80;;;12.50;;
5054;SDS011;13829;48.990;8.346;2023-05-21T10:28:37;13.70;;;12.30;;
5054;SDS011;13829;48.990;8.346;2023-05-21T10:31:05;14.27;;;12.80;;
5054;SDS011;13829;48.990;8.346;2023-05-21T10:33:33;14.75;;;13.18;;
5054;SDS011;13829;48.990;8.346;2023-05-21T10:36:02;15.68;;;13.32;;
5054;SDS011;13829;48.990;8.346;2023-05-21T10:38:30;13.25;;;11.82;;
5054;SDS011;13829;48.990;8.346;2023-05-21T10:41:01;14.18;;;12.77;;
5054;SDS011;13829;48.990;8.346;2023-05-21T10:43:37;13.23;;;12.13;;
5054;SDS011;13829;48.990;8.346;2023-05-21T10:46:24;13.23;;;11.80;;
5054;SDS011;13829;48.990;8.346;2023-05-21T10:49:29;13.02;;;11.63;;
5054;SDS011;13829;48.990;8.346;2023-05-21T10:52:23;13.32;;;11.65;;
5054;SDS011;13829;48.990;8.346;2023-05-21T10:55:28;13.80;;;11.90;;
5054;SDS011;13829;48.990;8.346;2023-05-21T10:58:19;13.32;;;11.93;;
5054;SDS011;13829;48.990;8.346;2023-05-21T11:01:17;14.20;;;12.80;;
5054;SDS011;13829;48.990;8.346;2023-05-21T11:03:45;11.65;;;10.55;;
5054;SDS011;13829;48.990;8.346;2023-05-21T11:06:20;12.68;;;11.48;;
5054;SDS011;13829;48.990;8.346;2023-05-21T11:08:49;12.10;;;11.00;;
5054;SDS011;13829;48.990;8.346;2023-05-21T11:14:26;12.88;;;11.60;;
5054;SDS011;13829;48.990;8.346;2023-05-21T11:17:00;13.18;;;11.40;;
5054;SDS011;13829;48.990;8.346;2023-05-21T11:19:35;13.38;;;12.00;;
5054;SDS011;13829;48.990;8.346;2023-05-21T11:22:05;12.18;;;10.98;;
5054;SDS011;13829;48.990;8.346;2023-05-21T11:24:37;12.68;;;10.82;;
5054;SDS011;13829;48.990;8.346;2023-05-21T11:27:06;11.65;;;10.55;;
5054;SDS011;13829;48.990;8.346;2023-05-21T11:29:41;12.80;;;11.55;;
5054;SDS011;13829;48.990;8.346;2023-05-21T11:32:11;14.13;;;10.27;;
5054;SDS011;13829;48.990;8.346;2023-05-21T11:34:42;11.15;;;10.05;;
5054;SDS011;13829;48.990;8.346;2023-05-21T11:37:23;11.02;;;9.93;;
5054;SDS011;13829;48.990;8.346;2023-05-21T11:42:51;10.65;;;9.55;;
5054;SDS011;13829;48.990;8.346;2023-05-21T11:45:21;10.32;;;9.40;;
5054;SDS011;13829;48.990;8.346;2023-05-21T11:47:53;10.27;;;9.27;;
5054;SDS011;13829;48.990;8.346;2023-05-21T11:50:21;12.20;;;9.23;;
5054;SDS011;13829;48.990;8.346;2023-05-21T11:52:48;9.57;;;8.63;;
5054;SDS011;13829;48.990;8.346;2023-05-21T11:55:19;10.23;;;8.48;;
5054;SDS011;13829;48.990;8.346;2023-05-21T11:57:47;10.18;;;9.18;;
5054;SDS011;13829;48.990;8.346;2023-05-21T12:00:20;10.00;;;8.98;;
5054;SDS011;13829;48.990;8.346;2023-05-21T12:02:48;10.57;;;8.82;;
5054;SDS011;13829;48.990;8.346;2023-05-21T12:05:17;10.57;;;9.40;;
5054;SDS011;13829;48.990;8.346;2023-05-21T12:07:47;13.20;;;9.20;;
5054;SDS011;13829;48.990;8.346;2023-05-21T12:10:15;11.27;;;9.82;;
5054;SDS011;13829;48.990;8.346;2023-05-21T12:12:45;11.07;;;9.60;;
5054;SDS011;13829;48.990;8.346;2023-05-21T12:15:12;10.75;;;9.65;;
5054;SDS011;13829;48.990;8.346;2023-05-21T12:17:40;10.13;;;9.13;;
5054;SDS011;13829;48.990;8.346;2023-05-21T12:20:08;12.55;;;10.20;;
5054;SDS011;13829;48.990;8.346;2023-05-21T12:22:40;16.10;;;9.50;;
5054;SDS011;13829;48.990;8.346;2023-05-21T12:25:08;14.38;;;9.43;;
5054;SDS011;13829;48.990;8.346;2023-05-21T12:27:36;10.30;;;9.27;;
5054;SDS011;13829;48.990;8.346;2023-05-21T12:30:04;10.18;;;9.13;;
5054;SDS011;13829;48.990;8.346;2023-05-21T12:32:32;10.77;;;9.77;;
5054;SDS011;13829;48.990;8.346;2023-05-21T12:35:03;10.80;;;9.77;;
5054;SDS011;13829;48.990;8.346;2023-05-21T12:37:31;10.10;;;9.20;;
5054;SDS011;13829;48.990;8.346;2023-05-21T12:40:00;11.23;;;9.40;;
5054;SDS011;13829;48.990;8.346;2023-05-21T12:42:31;11.38;;;9.52;;
5054;SDS011;13829;48.990;8.346;2023-05-21T12:45:00;10.65;;;9.23;;
5054;SDS011;13829;48.990;8.346;2023-05-21T12:47:31;14.50;;;9.25;;
5054;SDS011;13829;48.990;8.346;2023-05-21T12:49:59;10.07;;;9.18;;
5054;SDS011;13829;48.990;8.346;2023-05-21T12:52:29;12.20;;;9.55;;
5054;SDS011;13829;48.990;8.346;2023-05-21T12:54:56;10.27;;;9.27;;
5054;SDS011;13829;48.990;8.346;2023-05-21T12:57:24;9.70;;;8.77;;
5054;SDS011;13829;48.990;8.346;2023-05-21T12:59:59;10.00;;;9.00;;
5054;SDS011;13829;48.990;8.346;2023-05-21T13:02:30;9.10;;;8.23;;
5054;SDS011;13829;48.990;8.346;2023-05-21T13:05:00;9.80;;;8.90;;
5054;SDS011;13829;48.990;8.346;2023-05-21T13:07:30;9.68;;;8.45;;
5054;SDS011;13829;48.990;8.346;2023-05-21T13:10:00;9.80;;;8.45;;
5054;SDS011;13829;48.990;8.346;2023-05-21T13:12:29;9.90;;;8.90;;
5054;SDS011;13829;48.990;8.346;2023-05-21T13:14:58;10.88;;;9.05;;
5054;SDS011;13829;48.990;8.346;2023-05-21T13:17:27;11.88;;;9.27;;
5054;SDS011;13829;48.990;8.346;2023-05-21T13:20:04;9.98;;;8.63;;
5054;SDS011;13829;48.990;8.346;2023-05-21T13:22:34;9.30;;;8.38;;
5054;SDS011;13829;48.990;8.346;2023-05-21T13:25:06;9.63;;;8.73;;
5054;SDS011;13829;48.990;8.346;2023-05-21T13:27:35;9.10;;;8.20;;
5054;SDS011;13829;48.990;8.346;2023-05-21T13:30:02;9.07;;;8.10;;
5054;SDS011;13829;48.990;8.346;2023-05-21T13:32:31;9.75;;;8.52;;
5054;SDS011;13829;48.990;8.346;2023-05-21T13:34:58;9.05;;;7.97;;
5054;SDS011;13829;48.990;8.346;2023-05-21T13:37:25;8.38;;;7.55;;
5054;SDS011;13829;48.990;8.346;2023-05-21T13:39:53;9.18;;;8.27;;
5054;SDS011;13829;48.990;8.346;2023-05-21T13:42:20;10.48;;;8.57;;
5054;SDS011;13829;48.990;8.346;2023-05-21T13:44:48;8.65;;;7.75;;
5054;SDS011;13829;48.990;8.346;2023-05-21T13:47:15;8.45;;;7.55;;
5054;SDS011;13829;48.990;8.346;2023-05-21T13:49:42;9.27;;;7.53;;
5054;SDS011;13829;48.990;8.346;2023-05-21T13:52:09;8.82;;;7.95;;
5054;SDS011;13829;48.990;8.346;2023-05-21T13:54:36;8.75;;;7.85;;
5054;SDS011;13829;48.990;8.346;2023-05-21T13:57:05;9.20;;;7.85;;
5054;SDS011;13829;48.990;8.346;2023-05-21T13:59:32;8.98;;;8.07;;
5054;SDS011;13829;48.990;8.346;2023-05-21T14:01:59;10.27;;;8.50;;
5054;SDS011;13829;48.990;8.346;2023-05-21T14:04:26;9.80;;;8.50;;
5054;SDS011;13829;48.990;8.346;2023-05-21T14:06:53;9.52;;;7.82;;
5054;SDS011;13829;48.990;8.346;2023-05-21T14:09:20;8.82;;;7.97;;
5054;SDS011;13829;48.990;8.346;2023-05-21T14:11:51;8.68;;;7.63;;
5054;SDS011;13829;48.990;8.346;2023-05-21T14:14:20;9.18;;;7.75;;
5054;SDS011;13829;48.990;8.346;2023-05-21T14:16:47;10.35;;;7.10;;
5054;SDS011;13829;48.990;8.346;2023-05-21T14:19:15;8.35;;;7.50;;
5054;SDS011;13829;48.990;8.346;2023-05-21T14:21:42;7.85;;;7.07;;
5054;SDS011;13829;48.990;8.346;2023-05-21T14:24:09;8.75;;;7.93;;
5054;SDS011;13829;48.990;8.346;2023-05-21T14:26:38;7.82;;;7.03;;
5054;SDS011;13829;48.990;8.346;2023-05-21T14:29:07;7.68;;;6.97;;
5054;SDS011;13829;48.990;8.346;2023-05-21T14:31:36;8.05;;;7.25;;
5054;SDS011;13829;48.990;8.346;2023-05-21T14:34:03;8.25;;;7.40;;
5054;SDS011;13829;48.990;8.346;2023-05-21T14:36:31;8.60;;;7.75;;
5054;SDS011;13829;48.990;8.346;2023-05-21T14:38:58;9.35;;;7.25;;
5054;SDS011;13829;48.990;8.346;2023-05-21T14:41:25;8.18;;;7.38;;
5054;SDS011;13829;48.990;8.346;2023-05-21T14:43:53;8.68;;;7.45;;
5054;SDS011;13829;48.990;8.346;2023-05-21T14:46:20;8.65;;;7.68;;
5054;SDS011;13829;48.990;8.346;2023-05-21T14:48:48;8.82;;;7.68;;
5054;SDS011;13829;48.990;8.346;2023-05-21T14:51:15;7.90;;;7.20;;
5054;SDS011;13829;48.990;8.346;2023-05-21T14:53:43;11.32;;;7.78;;